Time;durP1;ratioP1;P1;durP2;ratioP2;P2;SDS_P1;SDS_P2;PMS_P1;PMS_P2;Temp;Humidity;BMP_temperature;BMP_pressure;BME280_temperature;BME280_humidity;BME280_pressure;Samples;Min_cycle;Max_cycle;Signal;HPM_P1;HPM_P2
2023/09/26 00:00:42;;;;;;;1.70;0.70;;;12.20;99.90;;;;;;5007090;28;20213;-85
2023/09/26 00:03:08;;;;;;;2.17;0.63;;;12.20;99.90;;;;;;5006148;28;20053;-85
2023/09/26 00:05:34;;;;;;;2.47;0.70;;;12.30;99.90;;;;;;4989466;28;20034;-85
2023/09/26 00:08:03;;;;;;;2.15;0.70;;;12.20;99.90;;;;;;5002526;28;20053;-86
2023/09/26 00:10:30;;;;;;;2.45;0.80;;;12.20;99.90;;;;;;5009712;28;20040;-85
2023/09/26 00:12:56;;;;;;;1.52;0.60;;;12.10;99.90;;;;;;4992019;28;20498;-88
2023/09/26 00:15:22;;;;;;;1.50;0.70;;;12.10;99.90;;;;;;4991120;28;20036;-87
2023/09/26 00:17:47;;;;;;;2.92;0.70;;;12.10;99.90;;;;;;4993462;28;20470;-86
2023/09/26 00:20:17;;;;;;;1.90;0.80;;;12.00;99.90;;;;;;4992606;28;20072;-85
2023/09/26 00:22:43;;;;;;;1.50;0.60;;;12.20;99.90;;;;;;4990647;28;20064;-87
2023/09/26 00:25:10;;;;;;;2.25;0.63;;;12.10;99.90;;;;;;4992335;28;20033;-86
2023/09/26 00:27:36;;;;;;;1.88;0.63;;;12.00;99.90;;;;;;4987789;28;20086;-86
2023/09/26 00:30:02;;;;;;;2.03;1.17;;;11.90;99.90;;;;;;5008293;28;20033;-86
2023/09/26 00:32:30;;;;;;;2.00;0.70;;;11.90;99.90;;;;;;4982783;28;20030;-87
2023/09/26 00:34:56;;;;;;;2.47;0.80;;;12.00;99.90;;;;;;4992329;28;20030;-86
2023/09/26 00:37:22;;;;;;;2.13;0.80;;;12.00;99.90;;;;;;4989951;28;20076;-87
2023/09/26 00:39:47;;;;;;;1.67;0.80;;;11.90;99.90;;;;;;4987711;28;20038;-86
2023/09/26 00:42:14;;;;;;;2.42;0.80;;;11.90;99.90;;;;;;5004876;28;20022;-87
2023/09/26 00:44:39;;;;;;;2.65;0.80;;;11.80;99.90;;;;;;4976403;28;20026;-86
2023/09/26 00:47:05;;;;;;;3.25;0.90;;;11.80;99.90;;;;;;4992363;28;20113;-86
2023/09/26 00:49:31;;;;;;;1.80;0.90;;;11.80;99.90;;;;;;4975617;28;20042;-87
2023/09/26 00:52:00;;;;;;;1.65;0.77;;;11.90;99.90;;;;;;5007233;28;20355;-87
2023/09/26 00:54:27;;;;;;;2.00;0.85;;;11.80;99.90;;;;;;5004113;28;20030;-86
2023/09/26 00:56:53;;;;;;;1.67;0.80;;;11.70;99.90;;;;;;4988715;28;20076;-86
2023/09/26 00:59:20;;;;;;;2.58;0.77;;;11.70;99.90;;;;;;4990908;28;20030;-87
2023/09/26 01:01:49;;;;;;;2.42;0.80;;;11.70;99.90;;;;;;5008579;28;20374;-86
2023/09/26 01:04:15;;;;;;;2.50;0.70;;;11.70;99.90;;;;;;4976240;28;20474;-87
2023/09/26 01:06:41;;;;;;;2.28;0.90;;;11.70;99.90;;;;;;4997388;28;20035;-88
2023/09/26 01:09:10;;;;;;;2.58;0.82;;;11.70;99.90;;;;;;4988819;28;20042;-84
2023/09/26 01:11:36;;;;;;;1.85;0.80;;;11.70;99.90;;;;;;4990680;28;20030;-86
2023/09/26 01:14:02;;;;;;;1.80;1.00;;;11.60;99.90;;;;;;4974562;28;20034;-86
2023/09/26 01:16:28;;;;;;;2.10;0.70;;;11.70;99.90;;;;;;4987646;28;20084;-88
2023/09/26 01:18:53;;;;;;;1.50;0.60;;;11.70;99.90;;;;;;4988482;28;20026;-86
2023/09/26 01:21:19;;;;;;;1.75;0.85;;;11.70;99.90;;;;;;5007010;28;20034;-85
2023/09/26 01:23:52;;;;;;;2.28;0.80;;;11.70;99.90;;;;;;5001553;28;20026;-86
2023/09/26 01:26:18;;;;;;;1.85;0.82;;;11.70;99.90;;;;;;4991405;28;20022;-87
2023/09/26 01:28:44;;;;;;;1.77;0.70;;;11.60;99.90;;;;;;4984100;28;20497;-86
2023/09/26 01:31:09;;;;;;;3.88;0.80;;;11.60;99.90;;;;;;4988855;28;20030;-86
2023/09/26 01:33:35;;;;;;;1.50;0.70;;;11.60;99.90;;;;;;4986590;28;20022;-87
2023/09/26 01:36:01;;;;;;;2.17;0.82;;;11.60;99.90;;;;;;4991917;28;20104;-88
2023/09/26 01:38:27;;;;;;;1.83;0.90;;;11.60;99.90;;;;;;5003526;28;20018;-86
2023/09/26 01:40:53;;;;;;;1.38;0.70;;;11.60;99.90;;;;;;4990994;28;20129;-86
2023/09/26 01:43:19;;;;;;;1.85;0.93;;;11.60;99.90;;;;;;4988887;28;20106;-86
2023/09/26 01:45:45;;;;;;;2.00;0.90;;;11.70;99.90;;;;;;4991811;28;20026;-85
2023/09/26 01:48:12;;;;;;;2.00;1.02;;;11.70;99.90;;;;;;4989943;28;20038;-86
2023/09/26 01:50:38;;;;;;;1.40;0.75;;;11.70;99.90;;;;;;4989721;28;20034;-86
2023/09/26 01:53:04;;;;;;;1.75;0.70;;;11.70;99.90;;;;;;4990754;28;20026;-86
2023/09/26 01:55:30;;;;;;;2.35;0.80;;;11.60;99.90;;;;;;4987382;28;20133;-87
2023/09/26 01:57:56;;;;;;;2.20;0.80;;;11.50;99.90;;;;;;4987186;28;20441;-87
2023/09/26 02:00:22;;;;;;;2.80;0.88;;;11.50;99.90;;;;;;4991043;28;20088;-86
2023/09/26 02:02:50;;;;;;;2.00;0.90;;;11.50;99.90;;;;;;4987057;28;20104;-87
2023/09/26 02:05:19;;;;;;;2.28;0.95;;;11.50;99.90;;;;;;4990151;28;20034;-86
2023/09/26 02:07:47;;;;;;;2.40;0.93;;;11.60;99.90;;;;;;5008869;28;20034;-85
2023/09/26 02:10:15;;;;;;;2.13;0.80;;;11.40;99.90;;;;;;4993576;28;20022;-86
2023/09/26 02:12:48;;;;;;;1.70;0.75;;;11.50;99.90;;;;;;4994043;28;20080;-86
2023/09/26 02:15:14;;;;;;;2.40;0.88;;;11.40;99.90;;;;;;4994380;28;20037;-86
2023/09/26 02:17:41;;;;;;;2.15;0.80;;;11.40;99.90;;;;;;5008253;28;20156;-86
2023/09/26 02:20:12;;;;;;;1.85;0.90;;;11.50;99.90;;;;;;4995547;28;20041;-87
2023/09/26 02:22:58;;;;;;;1.58;0.93;;;11.40;99.90;;;;;;4995220;28;20466;-86
2023/09/26 02:25:24;;;;;;;1.80;0.90;;;11.40;99.90;;;;;;5001361;28;20030;-87
2023/09/26 02:27:51;;;;;;;2.33;0.80;;;11.40;99.90;;;;;;4993576;28;20033;-88
2023/09/26 02:30:19;;;;;;;2.28;0.73;;;11.30;99.90;;;;;;5008046;28;20026;-87
2023/09/26 02:32:45;;;;;;;2.83;0.80;;;11.40;99.90;;;;;;4990254;28;20030;-88
2023/09/26 02:35:13;;;;;;;1.73;0.80;;;11.50;99.90;;;;;;4994072;28;20029;-86
2023/09/26 02:37:39;;;;;;;1.50;0.70;;;11.50;99.90;;;;;;4989814;28;20038;-87
2023/09/26 02:40:09;;;;;;;1.83;0.90;;;11.40;99.90;;;;;;5007729;28;20046;-88
2023/09/26 02:42:38;;;;;;;1.60;0.77;;;11.40;99.90;;;;;;4994810;28;20032;-86
2023/09/26 02:45:04;;;;;;;2.03;0.98;;;11.30;99.90;;;;;;5007741;28;20081;-86
2023/09/26 02:47:30;;;;;;;1.88;0.80;;;11.40;99.90;;;;;;4991595;28;20062;-87
2023/09/26 02:49:56;;;;;;;2.13;0.70;;;11.40;99.90;;;;;;5010240;28;20155;-87
2023/09/26 02:52:23;;;;;;;1.80;0.95;;;11.40;99.90;;;;;;4994288;28;20124;-86
2023/09/26 02:54:49;;;;;;;2.45;0.80;;;11.50;99.90;;;;;;4994620;28;20033;-88
2023/09/26 02:57:15;;;;;;;2.30;0.90;;;11.40;99.90;;;;;;4993702;28;20057;-88
2023/09/26 02:59:41;;;;;;;1.77;0.80;;;11.40;99.90;;;;;;5006624;28;20049;-87
2023/09/26 03:02:07;;;;;;;2.35;1.02;;;11.50;99.90;;;;;;5009380;28;20029;-86
2023/09/26 03:04:33;;;;;;;1.80;0.93;;;11.40;99.90;;;;;;4974329;28;20057;-88
2023/09/26 03:06:58;;;;;;;3.08;0.90;;;11.40;99.90;;;;;;4977908;28;20482;-87
2023/09/26 03:09:24;;;;;;;2.75;0.90;;;11.40;99.90;;;;;;4998774;28;20486;-86
2023/09/26 03:11:50;;;;;;;2.38;0.98;;;11.30;99.90;;;;;;4994086;28;20044;-86
2023/09/26 03:14:18;;;;;;;2.72;0.90;;;11.30;99.90;;;;;;4987995;28;20037;-86
2023/09/26 03:16:44;;;;;;;2.03;1.00;;;11.40;99.90;;;;;;4994297;28;20030;-87
2023/09/26 03:19:10;;;;;;;2.00;1.10;;;11.30;99.90;;;;;;4990585;28;20031;-86
2023/09/26 03:21:36;;;;;;;2.40;1.20;;;11.40;99.90;;;;;;4994516;28;20037;-87
2023/09/26 03:24:02;;;;;;;1.98;0.93;;;11.30;99.90;;;;;;4992494;28;20073;-88
2023/09/26 03:26:28;;;;;;;2.95;1.00;;;11.20;99.90;;;;;;5001586;28;20025;-87
2023/09/26 03:28:54;;;;;;;1.65;0.75;;;11.20;99.90;;;;;;4993468;28;20068;-86
2023/09/26 03:31:24;;;;;;;1.52;0.75;;;11.20;99.90;;;;;;4993950;28;20501;-87
2023/09/26 03:33:50;;;;;;;2.60;0.90;;;11.20;99.90;;;;;;4976040;28;20022;-87
2023/09/26 03:36:18;;;;;;;2.08;0.90;;;11.30;99.90;;;;;;5007936;28;20121;-87
2023/09/26 03:38:43;;;;;;;1.90;0.90;;;11.30;99.90;;;;;;4991190;28;20033;-86
2023/09/26 03:41:09;;;;;;;1.75;0.80;;;11.30;99.90;;;;;;4993371;28;20389;-86
2023/09/26 03:43:35;;;;;;;1.83;0.88;;;11.20;99.90;;;;;;4991512;28;20025;-86
2023/09/26 03:46:06;;;;;;;1.95;0.98;;;11.10;99.90;;;;;;5004202;28;20033;-86
2023/09/26 03:48:32;;;;;;;2.25;1.02;;;11.10;99.90;;;;;;5010047;28;20033;-87
2023/09/26 03:51:14;;;;;;;2.30;0.90;;;11.10;99.90;;;;;;5006638;28;20040;-88
2023/09/26 03:53:42;;;;;;;2.70;0.80;;;11.20;99.90;;;;;;4970272;28;20033;-86
2023/09/26 03:56:08;;;;;;;2.22;1.00;;;11.20;99.90;;;;;;5005613;28;20041;-87
2023/09/26 03:58:34;;;;;;;2.20;1.10;;;11.20;99.90;;;;;;5009769;28;20034;-87
2023/09/26 04:01:15;;;;;;;2.28;1.20;;;11.30;99.90;;;;;;5008589;28;20036;-87
2023/09/26 04:03:46;;;;;;;;;;;11.20;99.90;;;;;;5007881;28;20026;-86
2023/09/26 04:06:12;;;;;;;1.60;0.80;;;11.30;99.90;;;;;;5008356;28;19956;-86
2023/09/26 04:08:38;;;;;;;2.40;0.88;;;11.20;99.90;;;;;;5007675;28;20038;-86
2023/09/26 04:11:04;;;;;;;2.22;1.10;;;11.20;99.90;;;;;;4975722;28;20029;-87
2023/09/26 04:13:29;;;;;;;1.75;1.05;;;11.30;99.90;;;;;;4983728;28;20030;-87
2023/09/26 04:15:55;;;;;;;2.00;1.23;;;11.20;99.90;;;;;;4992166;28;20027;-86
2023/09/26 04:18:22;;;;;;;1.98;0.80;;;11.30;99.90;;;;;;5007011;28;20045;-87
2023/09/26 04:20:49;;;;;;;1.50;0.70;;;11.30;99.90;;;;;;4992236;28;20371;-85
2023/09/26 04:23:15;;;;;;;2.25;0.90;;;11.20;99.90;;;;;;4990918;28;20030;-86
2023/09/26 04:25:41;;;;;;;2.28;1.08;;;11.30;99.90;;;;;;4989781;28;20029;-85
2023/09/26 04:28:07;;;;;;;2.10;1.20;;;11.20;99.90;;;;;;5000641;28;20095;-86
2023/09/26 04:30:40;;;;;;;2.45;1.00;;;11.30;99.90;;;;;;4991948;28;20041;-85
2023/09/26 04:33:10;;;;;;;2.50;1.05;;;11.20;99.90;;;;;;5007246;28;20076;-86
2023/09/26 04:35:36;;;;;;;2.97;1.13;;;11.30;99.90;;;;;;4996922;28;20025;-86
2023/09/26 04:38:03;;;;;;;1.92;0.75;;;11.30;99.90;;;;;;4971954;28;20025;-86
2023/09/26 04:40:29;;;;;;;1.60;0.80;;;11.30;99.90;;;;;;4992369;28;20073;-86
2023/09/26 04:42:59;;;;;;;2.17;1.33;;;11.30;99.90;;;;;;4991704;28;20085;-85
2023/09/26 04:45:29;;;;;;;;;;;11.30;99.90;;;;;;4990115;28;20550;-87
2023/09/26 04:48:00;;;;;;;1.63;0.85;;;11.20;99.90;;;;;;4998871;28;20004;-86
2023/09/26 04:50:27;;;;;;;2.35;1.05;;;11.20;99.90;;;;;;4991016;28;20481;-87
2023/09/26 04:52:54;;;;;;;1.85;1.05;;;11.40;99.90;;;;;;4991153;28;20046;-88
2023/09/26 04:55:20;;;;;;;2.72;1.05;;;11.30;99.90;;;;;;4990796;28;20040;-86
2023/09/26 04:57:46;;;;;;;2.63;1.48;;;11.40;99.90;;;;;;4989843;28;20478;-86
2023/09/26 05:00:17;;;;;;;2.55;1.17;;;11.40;99.90;;;;;;5007987;28;20052;-87
2023/09/26 05:02:44;;;;;;;1.75;0.85;;;11.50;99.90;;;;;;4971910;28;20466;-86
2023/09/26 05:05:11;;;;;;;2.00;1.00;;;11.50;99.90;;;;;;4973313;28;20060;-87
2023/09/26 05:07:37;;;;;;;2.10;1.05;;;11.60;99.90;;;;;;4992044;28;20018;-86
2023/09/26 05:10:03;;;;;;;2.45;1.23;;;11.60;99.90;;;;;;5002429;28;20038;-85
2023/09/26 05:12:29;;;;;;;1.95;1.05;;;11.60;99.90;;;;;;5000731;28;20036;-88
2023/09/26 05:14:55;;;;;;;2.25;1.15;;;11.60;99.90;;;;;;4999182;28;20108;-86
2023/09/26 05:17:24;;;;;;;3.08;1.13;;;11.60;99.90;;;;;;4989995;28;20085;-86
2023/09/26 05:19:50;;;;;;;2.22;1.20;;;11.70;99.90;;;;;;4979910;28;20099;-86
2023/09/26 05:22:17;;;;;;;3.15;1.40;;;11.80;99.90;;;;;;4984737;28;20038;-86
2023/09/26 05:24:43;;;;;;;2.33;1.70;;;11.90;99.90;;;;;;4990560;28;20030;-85
2023/09/26 05:27:09;;;;;;;3.40;1.30;;;11.80;99.90;;;;;;5004005;28;20043;-85
2023/09/26 05:29:35;;;;;;;2.45;1.52;;;11.90;99.90;;;;;;4995105;28;20053;-86
2023/09/26 05:32:01;;;;;;;2.50;1.27;;;11.90;99.90;;;;;;5005313;28;20033;-86
2023/09/26 05:34:28;;;;;;;2.35;1.20;;;11.90;99.90;;;;;;4987967;28;20091;-86
2023/09/26 05:36:53;;;;;;;3.20;1.25;;;11.90;99.90;;;;;;4987141;28;20040;-86
2023/09/26 05:39:19;;;;;;;1.90;1.00;;;11.90;99.90;;;;;;4986836;28;20402;-85
2023/09/26 05:41:45;;;;;;;2.55;1.50;;;11.90;99.90;;;;;;4978136;28;20120;-85
2023/09/26 05:44:12;;;;;;;2.90;1.48;;;11.90;99.90;;;;;;4974050;28;20860;-87
2023/09/26 05:46:38;;;;;;;2.70;1.27;;;11.90;99.90;;;;;;4990711;28;20037;-85
2023/09/26 05:49:03;;;;;;;4.10;1.10;;;11.90;99.90;;;;;;4975517;28;20029;-84
2023/09/26 05:51:29;;;;;;;2.70;1.10;;;11.90;99.90;;;;;;4975333;28;20637;-84
2023/09/26 05:53:55;;;;;;;3.55;1.73;;;12.00;99.90;;;;;;4991679;28;20110;-83
2023/09/26 05:56:20;;;;;;;2.28;1.30;;;12.00;99.90;;;;;;4990556;28;20108;-83
2023/09/26 05:58:49;;;;;;;2.88;1.45;;;12.10;99.90;;;;;;4991506;28;20053;-83
2023/09/26 06:01:15;;;;;;;2.85;1.27;;;12.10;99.90;;;;;;5007110;28;20330;-82
2023/09/26 06:03:40;;;;;;;3.30;1.45;;;12.00;99.90;;;;;;4989712;28;20030;-84
2023/09/26 06:06:06;;;;;;;2.67;1.60;;;12.10;99.90;;;;;;5005960;28;20426;-83
2023/09/26 06:08:33;;;;;;;2.72;1.50;;;12.20;99.90;;;;;;5008180;28;20517;-83
2023/09/26 06:11:00;;;;;;;2.00;1.10;;;12.30;99.90;;;;;;4990334;28;20049;-85
2023/09/26 06:13:26;;;;;;;3.28;1.67;;;12.20;99.90;;;;;;4974303;28;20494;-84
2023/09/26 06:15:51;;;;;;;2.10;1.20;;;12.20;99.90;;;;;;4998990;28;20044;-85
2023/09/26 06:18:17;;;;;;;2.10;1.35;;;12.20;99.90;;;;;;4996878;28;20038;-84
2023/09/26 06:20:44;;;;;;;2.30;1.30;;;12.30;99.90;;;;;;4989891;28;20041;-85
2023/09/26 06:23:10;;;;;;;3.22;1.13;;;12.30;99.90;;;;;;4981857;28;20059;-85
2023/09/26 06:25:36;;;;;;;2.22;1.40;;;12.40;99.90;;;;;;5005919;28;20041;-84
2023/09/26 06:28:02;;;;;;;3.65;1.10;;;12.50;99.90;;;;;;4989663;28;20038;-82
2023/09/26 06:30:28;;;;;;;2.80;1.10;;;12.50;99.90;;;;;;4991089;28;20123;-83
2023/09/26 06:32:54;;;;;;;3.55;1.27;;;12.60;99.90;;;;;;5007139;28;20033;-84
2023/09/26 06:35:20;;;;;;;2.22;1.08;;;12.60;99.90;;;;;;4974357;28;20046;-86
2023/09/26 06:37:46;;;;;;;2.13;0.98;;;12.60;99.90;;;;;;5007460;28;20169;-87
2023/09/26 06:40:11;;;;;;;3.42;1.30;;;12.70;99.90;;;;;;4991865;28;20453;-83
2023/09/26 06:42:37;;;;;;;3.22;0.93;;;12.70;99.90;;;;;;4997494;28;20034;-84
2023/09/26 06:45:04;;;;;;;2.60;1.13;;;12.80;99.90;;;;;;4990451;28;20091;-87
2023/09/26 06:47:29;;;;;;;2.47;1.20;;;12.80;99.90;;;;;;5006819;28;20034;-86
2023/09/26 06:49:56;;;;;;;3.10;1.00;;;12.80;99.90;;;;;;4990780;28;20037;-85
2023/09/26 06:52:25;;;;;;;3.28;1.40;;;12.80;99.90;;;;;;4989581;28;20481;-85
2023/09/26 06:54:51;;;;;;;2.80;0.75;;;12.80;99.90;;;;;;4989601;28;20091;-85
2023/09/26 06:57:26;;;;;;;2.67;0.98;;;12.90;99.90;;;;;;4996047;28;20061;-85
2023/09/26 06:59:51;;;;;;;2.63;1.10;;;12.90;99.90;;;;;;4993586;28;20977;-85
2023/09/26 07:02:17;;;;;;;2.83;1.48;;;12.90;99.90;;;;;;4989996;28;20084;-84
2023/09/26 07:04:43;;;;;;;3.55;1.30;;;13.00;99.90;;;;;;4997349;28;20123;-86
2023/09/26 07:07:09;;;;;;;2.03;0.90;;;13.00;99.90;;;;;;4988651;28;20022;-86
2023/09/26 07:09:35;;;;;;;2.72;1.25;;;13.10;99.90;;;;;;5007691;28;20044;-85
2023/09/26 07:12:02;;;;;;;2.95;1.30;;;13.10;99.90;;;;;;4989066;28;20081;-84
2023/09/26 07:14:35;;;;;;;2.05;1.00;;;13.20;99.90;;;;;;5006610;28;20900;-85
2023/09/26 07:17:02;;;;;;;2.72;1.25;;;13.30;99.90;;;;;;4987110;28;20504;-85
2023/09/26 07:19:34;;;;;;;4.82;1.65;;;13.40;99.90;;;;;;4979596;28;20532;-84
2023/09/26 07:22:00;;;;;;;3.35;1.90;;;13.50;99.90;;;;;;4990131;28;20410;-85
2023/09/26 07:24:26;;;;;;;3.10;1.45;;;13.50;99.90;;;;;;4988786;28;20129;-87
2023/09/26 07:26:52;;;;;;;2.15;1.33;;;13.60;99.90;;;;;;4979224;28;20033;-85
2023/09/26 07:29:18;;;;;;;2.88;1.65;;;13.60;99.90;;;;;;4980428;28;20096;-84
2023/09/26 07:31:44;;;;;;;3.72;1.65;;;13.70;99.90;;;;;;4988088;28;20493;-84
2023/09/26 07:34:10;;;;;;;3.55;1.45;;;13.70;99.90;;;;;;4988802;28;20857;-85
2023/09/26 07:36:36;;;;;;;2.55;1.52;;;13.70;99.90;;;;;;4978816;28;20033;-85
2023/09/26 07:39:03;;;;;;;4.63;1.20;;;13.80;99.90;;;;;;5002641;28;20076;-86
2023/09/26 07:41:29;;;;;;;4.72;1.50;;;13.80;99.90;;;;;;4991015;28;20056;-85
2023/09/26 07:43:55;;;;;;;3.58;1.40;;;14.00;99.90;;;;;;4979205;28;20042;-84
2023/09/26 07:46:21;;;;;;;2.60;1.10;;;14.10;99.90;;;;;;4988242;28;20037;-85
2023/09/26 07:48:47;;;;;;;2.30;1.20;;;14.20;99.90;;;;;;4973512;28;20029;-84
2023/09/26 07:51:13;;;;;;;2.40;1.00;;;14.40;99.90;;;;;;4988377;28;20498;-86
2023/09/26 07:53:38;;;;;;;2.15;0.95;;;14.60;99.90;;;;;;5005118;28;20103;-84
2023/09/26 07:56:04;;;;;;;3.95;1.23;;;14.80;99.90;;;;;;4987083;28;20057;-86
2023/09/26 07:58:31;;;;;;;2.00;1.00;;;15.00;99.90;;;;;;4973424;28;20132;-86
2023/09/26 08:00:58;;;;;;;1.90;1.17;;;14.90;99.90;;;;;;4979029;28;20042;-85
2023/09/26 08:03:24;;;;;;;2.55;1.20;;;15.00;99.90;;;;;;4971841;28;20100;-86
2023/09/26 08:05:57;;;;;;;2.40;1.10;;;15.10;99.90;;;;;;4972697;28;20064;-84
2023/09/26 08:08:23;;;;;;;2.20;1.33;;;15.30;99.90;;;;;;4988427;28;20033;-86
2023/09/26 08:10:48;;;;;;;2.17;0.88;;;15.40;99.90;;;;;;5006439;28;20482;-85
2023/09/26 08:13:15;;;;;;;2.53;1.45;;;15.60;99.90;;;;;;5004277;28;20029;-84
2023/09/26 08:15:40;;;;;;;2.55;1.40;;;15.70;99.90;;;;;;4989089;28;20193;-86
2023/09/26 08:18:06;;;;;;;2.67;1.27;;;15.60;99.90;;;;;;4987475;28;20371;-85
2023/09/26 08:20:32;;;;;;;2.35;1.05;;;15.60;99.90;;;;;;4989370;28;20057;-86
2023/09/26 08:22:57;;;;;;;2.42;1.00;;;15.70;99.90;;;;;;4989195;28;21276;-87
2023/09/26 08:25:24;;;;;;;2.00;1.20;;;15.80;99.90;;;;;;4988178;28;20041;-85
2023/09/26 08:27:49;;;;;;;4.45;1.23;;;15.90;99.90;;;;;;4988492;28;20034;-86
2023/09/26 08:30:15;;;;;;;3.75;1.55;;;16.00;99.90;;;;;;4987603;28;20461;-85
2023/09/26 08:32:42;;;;;;;2.38;1.27;;;16.00;99.90;;;;;;5002985;28;20371;-87
2023/09/26 08:35:09;;;;;;;2.20;0.90;;;16.10;99.90;;;;;;4979154;28;20049;-84
2023/09/26 08:37:37;;;;;;;2.97;0.93;;;16.30;99.90;;;;;;4986476;28;20529;-85
2023/09/26 08:40:13;;;;;;;4.13;1.48;;;16.40;99.90;;;;;;4988207;28;20049;-88
2023/09/26 08:42:49;;;;;;;2.92;1.40;;;16.60;99.90;;;;;;4978720;28;20096;-86
2023/09/26 08:45:15;;;;;;;2.47;0.93;;;16.90;99.90;;;;;;5003878;28;20094;-85
2023/09/26 08:47:43;;;;;;;2.60;1.00;;;17.10;99.90;;;;;;4970625;28;20030;-86
2023/09/26 08:50:09;;;;;;;1.80;0.82;;;17.30;99.90;;;;;;4986572;28;20029;-87
2023/09/26 08:52:35;;;;;;;4.65;1.30;;;17.30;99.90;;;;;;5005838;28;20055;-85
2023/09/26 08:55:02;;;;;;;2.63;1.23;;;17.30;99.90;;;;;;4988288;28;20034;-87
2023/09/26 08:57:28;;;;;;;2.42;0.90;;;17.30;99.90;;;;;;4986607;28;20080;-87
2023/09/26 08:59:55;;;;;;;3.05;0.90;;;17.30;99.90;;;;;;4988203;28;20150;-88
2023/09/26 09:02:20;;;;;;;2.20;1.27;;;17.50;99.90;;;;;;4984909;28;20127;-87
2023/09/26 09:04:46;;;;;;;2.65;0.90;;;17.50;99.90;;;;;;4987141;28;20116;-87
2023/09/26 09:07:13;;;;;;;1.60;0.65;;;17.50;99.90;;;;;;4986582;28;20029;-87
2023/09/26 09:10:04;;;;;;;2.63;0.90;;;17.80;99.90;;;;;;5003364;28;20044;-87
2023/09/26 09:12:30;;;;;;;2.47;0.80;;;18.00;99.90;;;;;;4978242;28;20034;-87
2023/09/26 09:14:55;;;;;;;3.83;0.80;;;18.30;99.90;;;;;;4987900;28;20025;-87
2023/09/26 09:17:21;;;;;;;1.75;0.77;;;18.30;99.90;;;;;;4987063;28;20042;-90
2023/09/26 09:19:48;;;;;;;2.22;1.02;;;18.30;99.90;;;;;;4987282;28;20048;-86
2023/09/26 09:22:15;;;;;;;2.15;1.00;;;18.30;99.90;;;;;;4986458;28;20069;-89
2023/09/26 09:24:41;;;;;;;2.58;0.95;;;18.70;99.90;;;;;;4988018;28;20120;-86
2023/09/26 09:27:07;;;;;;;1.45;0.60;;;18.70;99.90;;;;;;4970362;28;20036;-86
2023/09/26 09:29:32;;;;;;;1.63;0.60;;;18.80;99.90;;;;;;4987900;28;20088;-87
2023/09/26 09:31:58;;;;;;;2.10;0.77;;;19.10;99.90;;;;;;4987575;28;20392;-87
2023/09/26 09:34:25;;;;;;;2.25;1.10;;;19.20;99.90;;;;;;4971910;28;20055;-86
2023/09/26 09:36:54;;;;;;;3.80;0.75;;;19.40;99.90;;;;;;4970399;28;20042;-86
2023/09/26 09:39:19;;;;;;;3.03;0.90;;;19.80;99.90;;;;;;4987698;28;20508;-87
2023/09/26 09:41:47;;;;;;;1.50;0.70;;;19.90;99.90;;;;;;4986594;28;20033;-88
2023/09/26 09:44:13;;;;;;;2.58;0.65;;;19.90;99.90;;;;;;4986498;28;20034;-85
2023/09/26 09:46:39;;;;;;;1.60;0.65;;;20.20;99.90;;;;;;4970997;28;20478;-86
2023/09/26 09:49:12;;;;;;;1.98;0.65;;;20.20;99.90;;;;;;4993953;28;20030;-86
2023/09/26 09:51:42;;;;;;;2.63;0.70;;;20.40;99.90;;;;;;4987439;28;20069;-89
2023/09/26 09:54:13;;;;;;;1.23;0.50;;;20.30;99.90;;;;;;4987742;28;20064;-86
2023/09/26 09:56:39;;;;;;;3.08;0.60;;;20.70;99.90;;;;;;4987026;28;20132;-86
2023/09/26 09:59:12;;;;;;;2.65;0.70;;;20.90;99.90;;;;;;4988057;28;20533;-86
2023/09/26 10:01:44;;;;;;;1.90;0.57;;;20.50;99.90;;;;;;4984965;28;20050;-89
2023/09/26 10:04:10;;;;;;;2.42;0.80;;;20.30;99.90;;;;;;4986218;28;20096;-84
2023/09/26 10:06:38;;;;;;;2.20;0.60;;;20.20;99.90;;;;;;4992989;28;20758;-87
2023/09/26 10:09:04;;;;;;;1.13;0.40;;;20.60;99.90;;;;;;4989809;28;20037;-85
2023/09/26 10:11:31;;;;;;;1.70;0.70;;;21.00;99.90;;;;;;4993833;28;20034;-87
2023/09/26 10:13:58;;;;;;;1.73;0.50;;;21.00;99.90;;;;;;4993232;28;20037;-86
2023/09/26 10:16:25;;;;;;;1.70;0.50;;;21.20;99.90;;;;;;4992761;28;20748;-88
2023/09/26 10:18:51;;;;;;;2.40;0.57;;;21.30;99.90;;;;;;4977623;28;20504;-86
2023/09/26 10:21:27;;;;;;;2.65;0.80;;;21.60;99.90;;;;;;4974642;28;20042;-88
2023/09/26 10:24:07;;;;;;;2.72;1.20;;;21.50;99.90;;;;;;4977146;28;20073;-87
2023/09/26 10:26:36;;;;;;;6.07;1.35;;;21.40;99.90;;;;;;4999513;28;20046;-90
2023/09/26 10:29:25;;;;;;;3.38;1.00;;;21.40;99.90;;;;;;4994595;28;20038;-92
2023/09/26 10:31:57;;;;;;;2.53;1.00;;;21.60;99.90;;;;;;4981829;28;20033;-85
2023/09/26 10:34:32;;;;;;;2.67;1.27;;;21.60;99.90;;;;;;4998375;28;20029;-89
2023/09/26 10:37:05;;;;;;;3.72;1.77;;;21.80;99.90;;;;;;4993921;28;20042;-88
2023/09/26 10:39:37;;;;;;;7.75;3.30;;;21.50;99.90;;;;;;4988570;28;20068;-88
2023/09/26 10:42:19;;;;;;;5.85;2.85;;;21.20;99.90;;;;;;4981848;28;20040;-91
2023/09/26 10:44:46;;;;;;;6.40;2.58;;;21.30;99.90;;;;;;4997663;28;20132;-88
2023/09/26 10:47:16;;;;;;;10.60;4.65;;;21.50;99.90;;;;;;5012147;28;20136;-87
2023/09/26 10:49:45;;;;;;;6.95;3.22;;;21.40;99.90;;;;;;4998412;28;20037;-88
2023/09/26 10:52:12;;;;;;;6.32;2.88;;;21.30;99.90;;;;;;4997825;28;20036;-89
2023/09/26 10:54:39;;;;;;;5.00;2.42;;;21.30;99.90;;;;;;4998183;28;20040;-86
2023/09/26 10:57:05;;;;;;;6.95;2.60;;;21.30;99.90;;;;;;4997112;28;20049;-88
2023/09/26 10:59:32;;;;;;;4.97;2.53;;;21.40;99.90;;;;;;4997322;28;20064;-87
2023/09/26 11:02:00;;;;;;;4.55;1.58;;;21.30;99.90;;;;;;4986404;28;20030;-86
2023/09/26 11:04:28;;;;;;;3.80;1.75;;;21.60;99.90;;;;;;5004468;28;20018;-89
2023/09/26 11:06:58;;;;;;;2.92;1.00;;;21.60;99.90;;;;;;4996545;28;20050;-88
2023/09/26 11:09:25;;;;;;;3.10;1.40;;;21.70;99.90;;;;;;4981396;28;20087;-87
2023/09/26 11:11:54;;;;;;;3.03;1.25;;;21.90;99.90;;;;;;5012142;28;20034;-88
2023/09/26 11:14:20;;;;;;;3.25;1.15;;;21.80;99.90;;;;;;4998449;28;20034;-90
2023/09/26 11:16:46;;;;;;;2.45;1.20;;;21.80;99.90;;;;;;4978298;28;20107;-90
2023/09/26 11:19:12;;;;;;;1.88;0.73;;;21.60;99.90;;;;;;4996605;28;20061;-88
2023/09/26 11:21:38;;;;;;;3.92;1.00;;;21.70;99.90;;;;;;4988429;28;20097;-88
2023/09/26 11:24:22;;;;;;;2.92;1.17;;;21.50;99.90;;;;;;4998567;28;20057;-87
2023/09/26 11:26:51;;;;;;;2.45;0.88;;;21.50;99.90;;;;;;5013151;28;20034;-88
2023/09/26 11:29:20;;;;;;;3.55;0.77;;;21.70;99.90;;;;;;5004644;28;20053;-89
2023/09/26 11:31:47;;;;;;;2.13;0.80;;;21.80;99.90;;;;;;4996184;28;20042;-89
2023/09/26 11:34:16;;;;;;;2.22;0.70;;;21.60;99.90;;;;;;4997294;28;20061;-89
2023/09/26 11:36:43;;;;;;;2.65;0.80;;;21.50;99.90;;;;;;4979732;28;20045;-87
2023/09/26 11:39:16;;;;;;;2.85;1.10;;;21.70;99.90;;;;;;4985428;28;20052;-90
2023/09/26 11:41:42;;;;;;;3.25;1.02;;;21.60;99.90;;;;;;5012179;28;20045;-92
2023/09/26 11:44:09;;;;;;;2.55;1.10;;;21.50;99.90;;;;;;4980268;28;20113;-91
2023/09/26 11:46:47;;;;;;;2.58;0.93;;;21.70;99.90;;;;;;4995822;28;20461;-89
2023/09/26 11:49:14;;;;;;;2.42;0.93;;;21.70;99.90;;;;;;4997278;28;20367;-88
2023/09/26 11:51:40;;;;;;;3.80;1.00;;;21.60;99.90;;;;;;4994982;28;20029;-90
2023/09/26 11:54:06;;;;;;;4.60;0.95;;;21.70;99.90;;;;;;4996000;28;20557;-90
2023/09/26 11:56:36;;;;;;;3.45;0.80;;;21.80;99.90;;;;;;4978126;28;20165;-89
2023/09/26 11:59:04;;;;;;;2.47;0.82;;;21.60;99.90;;;;;;4997036;28;20052;-88
2023/09/26 12:01:31;;;;;;;2.00;0.68;;;21.60;99.90;;;;;;4987588;28;20050;-88
2023/09/26 12:03:57;;;;;;;2.97;0.90;;;21.80;99.90;;;;;;4997279;28;20029;-88
2023/09/26 12:06:24;;;;;;;3.42;1.02;;;21.60;99.90;;;;;;4981195;28;20080;-88
2023/09/26 12:08:50;;;;;;;2.90;0.90;;;21.70;99.90;;;;;;4981079;28;20164;-88
2023/09/26 12:11:15;;;;;;;2.15;0.93;;;21.70;99.90;;;;;;4996696;28;20061;-88
2023/09/26 12:13:41;;;;;;;3.03;1.38;;;21.80;99.90;;;;;;4980354;28;20354;-87
2023/09/26 12:16:07;;;;;;;2.90;1.17;;;21.40;99.90;;;;;;4996014;28;20033;-89
2023/09/26 12:18:33;;;;;;;3.83;1.30;;;21.30;99.90;;;;;;4994452;28;20046;-87
2023/09/26 12:21:00;;;;;;;3.42;1.30;;;21.40;99.90;;;;;;4960389;28;20185;-92
2023/09/26 12:23:28;;;;;;;3.72;1.08;;;21.40;99.90;;;;;;4995341;28;20048;-88
2023/09/26 12:25:54;;;;;;;3.35;1.20;;;21.40;99.90;;;;;;5011206;28;20163;-89
2023/09/26 12:28:21;;;;;;;2.15;0.77;;;21.50;99.90;;;;;;4986076;28;20379;-87
2023/09/26 12:30:48;;;;;;;3.17;1.00;;;21.50;99.90;;;;;;4978131;28;20072;-88
2023/09/26 12:33:13;;;;;;;3.17;0.82;;;21.70;99.90;;;;;;4993998;28;20120;-88
2023/09/26 12:35:39;;;;;;;2.45;0.90;;;21.70;99.90;;;;;;4995314;28;20034;-87
2023/09/26 12:38:05;;;;;;;2.50;0.70;;;21.60;99.90;;;;;;4996046;28;20041;-89
2023/09/26 12:40:31;;;;;;;2.25;0.60;;;21.80;99.90;;;;;;4979177;28;20072;-89
2023/09/26 12:42:58;;;;;;;2.17;0.50;;;22.00;99.90;;;;;;5011246;28;20545;-88
2023/09/26 12:45:23;;;;;;;1.70;0.70;;;22.00;99.90;;;;;;4978623;28;20045;-89
2023/09/26 12:47:49;;;;;;;1.92;0.82;;;22.00;99.90;;;;;;4995469;28;20111;-87